createdAt,value
2023-03-02T00:02:21.417Z,102098.91
2023-03-02T00:05:24.578Z,102093.91
2023-03-02T00:08:28.724Z,102081.00
2023-03-02T00:11:32.323Z,102089.22
2023-03-02T00:14:34.334Z,102089.50
2023-03-02T00:17:37.414Z,102076.88
2023-03-02T00:20:39.427Z,102094.91
2023-03-02T00:23:41.549Z,102099.59
2023-03-02T00:26:43.670Z,102076.44
2023-03-02T00:29:46.295Z,102089.09
2023-03-02T00:32:49.252Z,102081.56
2023-03-02T00:35:51.784Z,102082.28
2023-03-02T00:38:53.911Z,102077.31
2023-03-02T00:41:58.222Z,102077.59
2023-03-02T00:45:02.256Z,102067.06
2023-03-02T00:48:05.727Z,102081.69
2023-03-02T00:51:08.550Z,102072.91
2023-03-02T00:54:10.786Z,102065.97
2023-03-02T00:57:13.089Z,102072.91
2023-03-02T01:00:16.875Z,102074.44
2023-03-02T01:03:22.257Z,102082.13
2023-03-02T01:06:24.392Z,102074.31
2023-03-02T01:09:26.585Z,102070.19
2023-03-02T01:12:28.630Z,102083.13
2023-03-02T01:15:30.803Z,102085.97
2023-03-02T01:18:36.272Z,102078.00
2023-03-02T01:21:38.309Z,102072.75
2023-03-02T01:24:40.739Z,102071.59
2023-03-02T01:27:43.153Z,102079.56
2023-03-02T01:30:45.246Z,102069.06
2023-03-02T01:33:47.221Z,102074.00
2023-03-02T01:36:49.347Z,102081.94
2023-03-02T01:39:53.014Z,102089.78
2023-03-02T01:43:02.558Z,102080.28
2023-03-02T01:46:13.080Z,102101.28
2023-03-02T01:49:20.645Z,102078.97
2023-03-02T01:52:35.184Z,102093.16
2023-03-02T01:55:39.802Z,102089.91
2023-03-02T01:58:42.681Z,102103.56
2023-03-02T02:01:50.653Z,102088.06
2023-03-02T02:04:54.903Z,102086.78
2023-03-02T02:07:57.096Z,102093.13
2023-03-02T02:11:01.370Z,102087.75
2023-03-02T02:14:04.168Z,102080.78
2023-03-02T02:17:06.268Z,102087.13
2023-03-02T02:20:45.103Z,102090.41
2023-03-02T02:23:57.517Z,102088.31
2023-03-02T02:27:00.385Z,102070.16
2023-03-02T02:30:06.490Z,102082.38
2023-03-02T02:33:16.579Z,102075.41
2023-03-02T02:36:34.575Z,102078.66
2023-03-02T02:39:46.358Z,102064.44
2023-03-02T02:42:52.936Z,102065.75
2023-03-02T02:46:00.715Z,102065.44
2023-03-02T02:49:04.558Z,102064.56
2023-03-02T02:52:07.418Z,102063.31
2023-03-02T02:55:16.248Z,102068.53
2023-03-02T02:58:33.147Z,102065.56
2023-03-02T03:01:35.930Z,102068.44
2023-03-02T03:04:38.423Z,102070.84
2023-03-02T03:07:43.488Z,102072.69
2023-03-02T03:10:45.994Z,102064.88
2023-03-02T03:13:48.187Z,102056.09
2023-03-02T03:16:51.105Z,102053.50
2023-03-02T03:19:53.472Z,102048.28
2023-03-02T03:22:55.797Z,102070.44
2023-03-02T03:25:57.918Z,102068.47
2023-03-02T03:29:00.296Z,102067.88
2023-03-02T03:32:05.081Z,102074.25
2023-03-02T03:35:12.768Z,102071.34
2023-03-02T03:38:14.962Z,102059.19
2023-03-02T03:41:18.116Z,102070.38
2023-03-02T03:44:20.505Z,102054.09
2023-03-02T03:47:23.711Z,102059.03
2023-03-02T03:50:27.256Z,102064.44
2023-03-02T03:53:29.462Z,102059.22
2023-03-02T03:56:37.853Z,102059.19
2023-03-02T03:59:40.025Z,102070.03
2023-03-02T04:02:42.532Z,102066.03
2023-03-02T04:05:47.485Z,102066.75
2023-03-02T04:08:50.243Z,102066.59
2023-03-02T04:11:55.108Z,102049.09
2023-03-02T04:14:57.559Z,102076.97
2023-03-02T04:18:01.438Z,102067.44
2023-03-02T04:21:03.947Z,102071.81
2023-03-02T04:24:08.952Z,102073.44
2023-03-02T04:27:11.902Z,102074.69
2023-03-02T04:30:16.210Z,102077.53
2023-03-02T04:33:18.225Z,102078.72
2023-03-02T04:36:20.561Z,102082.72
2023-03-02T04:39:24.325Z,102087.38
2023-03-02T04:42:27.633Z,102093.22
2023-03-02T04:45:33.422Z,102080.97
2023-03-02T04:48:35.528Z,102073.00
2023-03-02T04:51:40.774Z,102071.41
2023-03-02T04:54:42.900Z,102076.97
2023-03-02T04:57:45.323Z,102058.66
2023-03-02T05:00:47.382Z,102069.75
2023-03-02T05:03:49.763Z,102072.75
2023-03-02T05:06:52.279Z,102055.97
2023-03-02T05:09:54.292Z,102059.91
2023-03-02T05:13:02.526Z,102082.78
2023-03-02T05:16:05.105Z,102070.66
2023-03-02T05:19:08.797Z,102098.25
2023-03-02T05:22:10.878Z,102092.56
2023-03-02T05:25:13.167Z,102101.94
2023-03-02T05:28:15.191Z,102104.19
2023-03-02T05:31:29.387Z,102101.06
2023-03-02T05:34:31.484Z,102097.06
2023-03-02T05:37:34.919Z,102105.25
2023-03-02T05:40:36.968Z,102111.50
2023-03-02T05:43:39.266Z,102111.72
2023-03-02T05:46:41.797Z,102098.25
2023-03-02T05:49:44.218Z,102106.59
2023-03-02T05:52:46.849Z,102107.84
2023-03-02T05:55:49.280Z,102110.63
2023-03-02T05:58:51.510Z,102112.53
2023-03-02T06:01:59.126Z,102113.78
2023-03-02T06:05:01.634Z,102105.97
2023-03-02T06:08:06.555Z,102107.66
2023-03-02T06:11:09.175Z,102110.59
2023-03-02T06:14:11.223Z,102109.66
2023-03-02T06:17:13.978Z,102108.69
2023-03-02T06:20:16.746Z,102115.44
2023-03-02T06:23:19.086Z,102119.34
2023-03-02T06:26:21.125Z,102112.88
2023-03-02T06:29:23.276Z,102117.75
2023-03-02T06:32:25.256Z,102116.09
2023-03-02T06:35:27.518Z,102109.97
2023-03-02T06:38:29.643Z,102110.66
2023-03-02T06:41:33.919Z,102111.41
2023-03-02T06:44:36.219Z,102128.50
2023-03-02T06:47:38.729Z,102121.38
2023-03-02T06:50:40.754Z,102122.28
2023-03-02T06:53:42.985Z,102112.19
2023-03-02T06:56:45.007Z,102120.25
2023-03-02T06:59:47.005Z,102119.13
2023-03-02T07:02:51.408Z,102133.41
2023-03-02T07:05:54.278Z,102120.50
2023-03-02T07:08:58.691Z,102136.53
2023-03-02T07:12:01.030Z,102136.28
2023-03-02T07:15:04.059Z,102135.44
2023-03-02T07:18:06.394Z,102136.91
2023-03-02T07:21:08.621Z,102135.44
2023-03-02T07:24:10.626Z,102140.16
2023-03-02T07:27:12.784Z,102132.75
2023-03-02T07:30:15.409Z,102123.13
2023-03-02T07:33:17.480Z,102132.56
2023-03-02T07:36:19.853Z,102145.72
2023-03-02T07:39:22.103Z,102142.06
2023-03-02T07:42:24.136Z,102135.75
2023-03-02T07:45:30.969Z,102129.38
2023-03-02T07:48:33.879Z,102146.94
2023-03-02T07:51:36.024Z,102139.22
2023-03-02T07:54:38.062Z,102121.97
2023-03-02T07:57:40.823Z,102127.94
2023-03-02T08:00:42.848Z,102130.00
2023-03-02T08:03:44.978Z,102124.00
2023-03-02T08:06:47.260Z,102134.44
2023-03-02T08:09:49.259Z,102127.78
2023-03-02T08:12:51.340Z,102122.59
2023-03-02T08:16:00.698Z,102107.84
2023-03-02T08:19:02.883Z,102128.41
2023-03-02T08:22:05.147Z,102127.47
2023-03-02T08:25:07.604Z,102116.84
2023-03-02T08:28:09.684Z,102113.66
2023-03-02T08:31:13.097Z,102129.16
2023-03-02T08:34:17.624Z,102130.25
2023-03-02T08:37:19.988Z,102120.03
2023-03-02T08:40:21.997Z,102130.72
2023-03-02T08:43:25.642Z,102122.56
2023-03-02T08:46:28.073Z,102118.00
2023-03-02T08:49:30.111Z,102115.50
2023-03-02T08:52:34.567Z,102106.03
2023-03-02T08:55:37.097Z,102101.44
2023-03-02T08:58:39.033Z,102087.19
2023-03-02T09:01:41.809Z,102099.41
2023-03-02T09:04:44.131Z,102101.28
2023-03-02T09:07:46.224Z,102081.72
2023-03-02T09:10:48.298Z,102086.31
2023-03-02T09:13:51.411Z,102089.03
2023-03-02T09:16:54.046Z,102088.00
2023-03-02T09:19:56.230Z,102082.41
2023-03-02T09:22:58.311Z,102079.88
2023-03-02T09:26:01.452Z,102077.50
2023-03-02T09:29:03.539Z,102071.53
2023-03-02T09:32:05.715Z,102070.34
2023-03-02T09:35:08.266Z,102062.69
2023-03-02T09:38:16.122Z,102063.03
2023-03-02T09:41:18.290Z,102056.78
2023-03-02T09:44:52.791Z,102057.63
2023-03-02T09:48:06.689Z,102050.50
2023-03-02T09:51:31.889Z,102050.34
2023-03-02T09:54:35.239Z,102046.94
2023-03-02T09:57:40.047Z,102042.91
2023-03-02T10:00:44.236Z,102037.28
2023-03-02T10:03:56.527Z,102032.00
2023-03-02T10:07:11.072Z,102031.66
2023-03-02T10:10:36.144Z,102020.75
2023-03-02T10:13:59.245Z,102026.13
2023-03-02T10:17:36.106Z,102017.31
2023-03-02T10:20:44.189Z,102007.34
2023-03-02T10:23:57.384Z,101997.78
2023-03-02T10:27:12.392Z,102002.28
2023-03-02T10:30:20.288Z,101996.72
2023-03-02T10:33:22.686Z,101989.56
2023-03-02T10:36:28.555Z,101975.50
2023-03-02T10:39:40.483Z,101981.38
2023-03-02T10:42:42.677Z,101971.69
2023-03-02T10:45:45.362Z,101972.97
2023-03-02T10:49:01.442Z,101978.00
2023-03-02T10:52:12.903Z,101972.81
2023-03-02T10:55:15.779Z,101951.94
2023-03-02T10:58:31.317Z,101965.16
2023-03-02T11:01:33.354Z,101967.28
2023-03-02T11:04:35.462Z,101959.53
2023-03-02T11:07:37.552Z,101951.69
2023-03-02T11:10:51.619Z,101945.41
2023-03-02T11:13:56.041Z,101949.19
2023-03-02T11:17:01.867Z,101938.00
2023-03-02T11:20:13.792Z,101934.25
2023-03-02T11:23:41.744Z,101938.00
2023-03-02T11:26:54.634Z,101937.66
2023-03-02T11:30:01.300Z,101939.88
2023-03-02T11:33:19.932Z,101930.50
2023-03-02T11:36:37.548Z,101919.31
2023-03-02T11:39:57.638Z,101918.34
2023-03-02T11:43:02.033Z,101910.81
2023-03-02T11:46:16.964Z,101908.97
2023-03-02T11:49:43.636Z,101895.06
2023-03-02T11:53:01.261Z,101897.06
2023-03-02T11:56:04.344Z,101885.38
2023-03-02T11:59:15.048Z,101886.63
2023-03-02T12:02:20.811Z,101878.31
2023-03-02T12:05:29.135Z,101868.25
2023-03-02T12:08:40.743Z,101867.09
2023-03-02T12:11:55.137Z,101864.09
2023-03-02T12:14:57.215Z,101850.78
2023-03-02T12:18:02.927Z,101853.50
2023-03-02T12:21:09.349Z,101862.09
2023-03-02T12:24:29.633Z,101857.94
2023-03-02T12:27:40.445Z,101859.25
2023-03-02T12:30:42.785Z,101844.56
2023-03-02T12:33:48.581Z,101861.59
2023-03-02T12:36:56.151Z,101832.78
2023-03-02T12:40:25.909Z,101841.56
2023-03-02T12:43:33.382Z,101847.72
2023-03-02T12:46:37.493Z,101843.38
2023-03-02T12:49:50.302Z,101848.13
2023-03-02T12:53:04.705Z,101823.78
2023-03-02T12:56:09.123Z,101837.72
2023-03-02T12:59:28.533Z,101840.13
2023-03-02T13:02:34.601Z,101839.09
2023-03-02T13:05:37.411Z,101836.91
2023-03-02T13:08:40.317Z,101820.63
2023-03-02T13:11:44.329Z,101827.06
2023-03-02T13:14:52.400Z,101819.41
2023-03-02T13:17:57.043Z,101804.94
2023-03-02T13:21:00.808Z,101777.72
2023-03-02T13:24:03.246Z,101784.88
2023-03-02T13:27:08.213Z,101774.91
2023-03-02T13:30:21.876Z,101791.59
2023-03-02T13:33:25.509Z,101782.75
2023-03-02T13:36:31.280Z,101757.63
2023-03-02T13:39:33.466Z,101776.88
2023-03-02T13:42:39.459Z,101767.19
2023-03-02T13:45:52.781Z,101762.78
2023-03-02T13:49:07.448Z,101762.97
2023-03-02T13:52:30.547Z,101748.97
2023-03-02T13:55:33.939Z,101755.94
2023-03-02T13:58:38.951Z,101745.94
2023-03-02T14:01:44.286Z,101745.03
2023-03-02T14:04:46.587Z,101741.13
2023-03-02T14:07:48.990Z,101727.56
2023-03-02T14:10:54.015Z,101718.53
2023-03-02T14:13:56.087Z,101714.50
2023-03-02T14:16:58.262Z,101708.06
2023-03-02T14:20:00.659Z,101716.69
2023-03-02T14:23:06.879Z,101719.69
2023-03-02T14:26:19.423Z,101722.41
2023-03-02T14:29:31.265Z,101710.41
2023-03-02T14:32:33.357Z,101703.94
2023-03-02T14:35:36.492Z,101715.50
2023-03-02T14:38:38.660Z,101716.22
2023-03-02T14:41:53.013Z,101711.28
2023-03-02T14:44:56.029Z,101716.84
2023-03-02T14:47:58.105Z,101717.44
2023-03-02T14:51:04.217Z,101717.06
2023-03-02T14:54:13.061Z,101704.63
2023-03-02T14:57:25.254Z,101711.00
2023-03-02T15:00:27.747Z,101705.94
2023-03-02T15:03:30.018Z,101709.00
2023-03-02T15:06:37.433Z,101711.78
2023-03-02T15:09:45.776Z,101704.63
2023-03-02T15:12:48.040Z,101687.94
2023-03-02T15:15:50.346Z,101708.00
2023-03-02T15:18:53.427Z,101707.97
2023-03-02T15:21:56.436Z,101698.59
2023-03-02T15:24:58.518Z,101702.94
2023-03-02T15:28:00.471Z,101695.19
2023-03-02T15:31:14.595Z,101698.75
2023-03-02T15:34:16.832Z,101711.06
2023-03-02T15:37:18.882Z,101709.22
2023-03-02T15:40:20.783Z,101700.78
2023-03-02T15:43:26.039Z,101703.22
2023-03-02T15:46:28.250Z,101703.41
2023-03-02T15:49:32.896Z,101698.00
2023-03-02T15:52:35.089Z,101706.34
2023-03-02T15:55:40.736Z,101705.66
2023-03-02T15:58:49.811Z,101708.13
2023-03-02T16:01:52.105Z,101703.38
2023-03-02T16:04:54.558Z,101695.09
2023-03-02T16:07:56.646Z,101713.22
2023-03-02T16:11:03.519Z,101719.19
2023-03-02T16:14:05.655Z,101716.34
2023-03-02T16:17:07.734Z,101721.09
2023-03-02T16:20:10.523Z,101703.47
2023-03-02T16:23:12.764Z,101720.78
2023-03-02T16:26:17.206Z,101726.53
2023-03-02T16:29:19.210Z,101723.00
2023-03-02T16:32:22.313Z,101725.38
2023-03-02T16:35:24.530Z,101733.84
2023-03-02T16:38:26.810Z,101733.19
2023-03-02T16:41:28.969Z,101729.28
2023-03-02T16:44:32.179Z,101735.53
2023-03-02T16:47:34.262Z,101733.19
2023-03-02T16:50:36.266Z,101727.59
2023-03-02T16:53:40.836Z,101724.72
2023-03-02T16:56:47.422Z,101724.22
2023-03-02T16:59:52.178Z,101721.34
2023-03-02T17:02:54.588Z,101724.72
2023-03-02T17:05:56.620Z,101736.94
2023-03-02T17:08:58.866Z,101740.13
2023-03-02T17:12:00.924Z,101731.47
2023-03-02T17:15:12.583Z,101739.13
2023-03-02T17:18:15.534Z,101733.19
2023-03-02T17:21:19.238Z,101718.13
2023-03-02T17:24:21.317Z,101729.63
2023-03-02T17:27:26.025Z,101718.63
2023-03-02T17:30:28.369Z,101728.78
2023-03-02T17:33:30.499Z,101725.91
2023-03-02T17:36:35.024Z,101730.75
2023-03-02T17:39:39.051Z,101714.84
2023-03-02T17:43:31.068Z,101657.59
2023-03-02T17:46:35.307Z,101727.28
2023-03-02T17:49:43.748Z,101724.00
2023-03-02T17:52:47.309Z,101718.22
2023-03-02T17:55:49.694Z,101689.06
2023-03-02T17:59:15.052Z,101712.44
2023-03-02T18:02:23.080Z,101718.72
2023-03-02T18:05:25.810Z,101711.75
2023-03-02T18:08:28.406Z,101712.59
2023-03-02T18:11:30.595Z,101719.22
2023-03-02T18:14:32.560Z,101709.06
2023-03-02T18:17:34.589Z,101712.78
2023-03-02T18:20:36.909Z,101717.34
2023-03-02T18:23:40.952Z,101712.78
2023-03-02T18:26:43.322Z,101715.66
2023-03-02T18:29:45.344Z,101713.94
2023-03-02T18:32:47.884Z,101719.88
2023-03-02T18:35:49.995Z,101721.88
2023-03-02T18:38:53.490Z,101721.34
2023-03-02T18:41:55.854Z,101711.88
2023-03-02T18:44:58.815Z,101712.91
2023-03-02T18:48:01.502Z,101715.75
2023-03-02T18:51:24.233Z,101718.31
2023-03-02T18:54:26.305Z,101716.59
2023-03-02T18:57:28.394Z,101717.78
2023-03-02T19:00:30.783Z,101721.59
2023-03-02T19:03:35.396Z,101725.00
2023-03-02T19:06:37.563Z,101712.94
2023-03-02T19:09:39.575Z,101713.31
2023-03-02T19:12:44.204Z,101731.88
2023-03-02T19:15:47.186Z,101714.25
2023-03-02T19:18:50.797Z,101732.75
2023-03-02T19:21:55.807Z,101732.53
2023-03-02T19:24:59.220Z,101727.44
2023-03-02T19:28:05.163Z,101726.78
2023-03-02T19:31:12.896Z,101712.63
2023-03-02T19:34:15.733Z,101731.25
2023-03-02T19:37:18.001Z,101728.41
2023-03-02T19:40:22.907Z,101725.19
2023-03-02T19:43:26.131Z,101725.91
2023-03-02T19:46:32.766Z,101729.09
2023-03-02T19:49:45.645Z,101734.94
2023-03-02T19:52:48.111Z,101730.81
2023-03-02T19:55:51.804Z,101736.88
2023-03-02T19:58:55.603Z,101734.47
2023-03-02T20:01:59.625Z,101726.94
2023-03-02T20:05:06.801Z,101741.66
2023-03-02T20:08:12.043Z,101731.78
2023-03-02T20:11:15.972Z,101732.25
2023-03-02T20:14:32.870Z,101725.69
2023-03-02T20:17:37.773Z,101724.66
2023-03-02T20:20:41.915Z,101730.81
2023-03-02T20:23:50.003Z,101726.81
2023-03-02T20:26:55.123Z,101723.56
2023-03-02T20:29:57.259Z,101716.63
2023-03-02T20:33:06.373Z,101719.09
2023-03-02T20:36:12.441Z,101710.81
2023-03-02T20:39:28.808Z,101719.44
2023-03-02T20:42:34.459Z,101710.34
2023-03-02T20:45:36.516Z,101702.53
2023-03-02T20:48:39.056Z,101708.78
2023-03-02T20:51:43.374Z,101687.16
2023-03-02T20:55:26.238Z,101692.13
2023-03-02T20:58:41.713Z,101689.06
2023-03-02T21:01:46.275Z,101684.06
2023-03-02T21:04:48.446Z,101671.06
2023-03-02T21:07:51.459Z,101666.69
2023-03-02T21:10:53.528Z,101669.25
2023-03-02T21:13:56.856Z,101677.34
2023-03-02T21:17:00.343Z,101678.56
2023-03-02T21:20:02.756Z,101672.91
2023-03-02T21:23:05.516Z,101674.06
2023-03-02T21:26:09.726Z,101659.47
2023-03-02T21:29:13.312Z,101664.91
2023-03-02T21:32:15.742Z,101660.97
2023-03-02T21:35:20.457Z,101658.94
2023-03-02T21:38:22.480Z,101667.97
2023-03-02T21:41:24.785Z,101662.88
2023-03-02T21:44:26.837Z,101654.19
2023-03-02T21:47:28.964Z,101664.75
2023-03-02T21:50:34.078Z,101653.94
2023-03-02T21:53:36.689Z,101650.97
2023-03-02T21:56:39.184Z,101652.31
2023-03-02T21:59:41.177Z,101645.03
2023-03-02T22:02:43.485Z,101644.47
2023-03-02T22:05:45.670Z,101647.75
2023-03-02T22:08:47.880Z,101646.44
2023-03-02T22:11:50.693Z,101646.72
2023-03-02T22:14:54.204Z,101650.13
2023-03-02T22:17:56.762Z,101642.09
2023-03-02T22:20:59.116Z,101641.22
2023-03-02T22:24:26.269Z,101651.47
2023-03-02T22:27:31.993Z,101646.72
2023-03-02T22:30:34.028Z,101644.16
2023-03-02T22:33:37.125Z,101632.84
2023-03-02T22:36:39.219Z,101634.91
2023-03-02T22:39:42.352Z,101625.19
2023-03-02T22:42:44.589Z,101624.25
2023-03-02T22:45:46.644Z,101627.03
2023-03-02T22:48:50.860Z,101624.59
2023-03-02T22:51:53.046Z,101621.63
2023-03-02T22:54:55.319Z,101629.34
2023-03-02T22:57:59.782Z,101628.63
2023-03-02T23:01:03.290Z,101623.09
2023-03-02T23:04:08.421Z,101615.44
2023-03-02T23:07:19.512Z,101608.16
2023-03-02T23:10:22.798Z,101607.22
2023-03-02T23:13:36.781Z,101619.03
2023-03-02T23:16:39.444Z,101594.38
2023-03-02T23:19:41.908Z,101600.50
2023-03-02T23:22:45.049Z,101587.06
2023-03-02T23:25:47.356Z,101592.19
2023-03-02T23:28:51.437Z,101583.59
2023-03-02T23:31:54.550Z,101579.22
2023-03-02T23:34:57.008Z,101587.81
2023-03-02T23:38:01.455Z,101575.78
2023-03-02T23:41:04.343Z,101571.13
2023-03-02T23:44:13.495Z,101581.72
2023-03-02T23:47:15.625Z,101581.44
2023-03-02T23:50:17.706Z,101583.59
2023-03-02T23:53:20.430Z,101575.38
2023-03-02T23:56:23.630Z,101561.38
2023-03-02T23:59:28.409Z,101570.19
